Terminal Aerodrome Forecast
Issued by NWS

Home | Current Version | Previous Version | Graphics & Text | Print | Product List | Glossary On
Versions: 1 2 3 4 5 6 7 8 9 10 11 12 13 14 15 16 17 18
000
FTUS43 KBIS 221612 AAA
TAFMOT
TAF AMD
KMOT 221612Z 2216/2312 28022G30KT P6SM FEW200
     FM221700 29025G36KT P6SM SKC
     FM222000 29032G44KT P6SM FEW080 SCT200
     FM230400 31023G33KT P6SM BKN025
     FM230700 31016KT P6SM BKN030=

USA.gov is the U.S. government's official web portal to all federal, state and local government web resources and services.